sensor_id;sensor_type;location;lat;lon;timestamp;temperature;humidity
24410;DHT22;12543;53.364;-1.504;2023-05-10T00:00:54;12.40;99.90
24410;DHT22;12543;53.364;-1.504;2023-05-10T00:03:21;12.40;99.90
24410;DHT22;12543;53.364;-1.504;2023-05-10T00:05:51;12.30;99.90
24410;DHT22;12543;53.364;-1.504;2023-05-10T00:08:19;12.30;99.90
24410;DHT22;12543;53.364;-1.504;2023-05-10T00:10:46;12.30;99.90
24410;DHT22;12543;53.364;-1.504;2023-05-10T00:13:13;12.20;99.90
24410;DHT22;12543;53.364;-1.504;2023-05-10T00:15:40;12.10;99.90
24410;DHT22;12543;53.364;-1.504;2023-05-10T00:18:07;12.10;99.90
24410;DHT22;12543;53.364;-1.504;2023-05-10T00:20:34;12.10;99.90
24410;DHT22;12543;53.364;-1.504;2023-05-10T00:23:01;12.10;99.90
24410;DHT22;12543;53.364;-1.504;2023-05-10T00:25:28;12.10;99.90
24410;DHT22;12543;53.364;-1.504;2023-05-10T00:27:55;12.00;99.90
24410;DHT22;12543;53.364;-1.504;2023-05-10T00:30:23;12.00;99.90
24410;DHT22;12543;53.364;-1.504;2023-05-10T00:32:50;12.00;99.90
24410;DHT22;12543;53.364;-1.504;2023-05-10T00:35:18;12.00;99.90
24410;DHT22;12543;53.364;-1.504;2023-05-10T00:37:45;12.00;99.90
24410;DHT22;12543;53.364;-1.504;2023-05-10T00:40:13;12.00;99.90
24410;DHT22;12543;53.364;-1.504;2023-05-10T00:42:44;11.90;99.90
24410;DHT22;12543;53.364;-1.504;2023-05-10T00:45:11;11.90;99.90
24410;DHT22;12543;53.364;-1.504;2023-05-10T00:47:38;12.00;99.90
24410;DHT22;12543;53.364;-1.504;2023-05-10T00:50:05;12.00;99.90
24410;DHT22;12543;53.364;-1.504;2023-05-10T00:52:33;12.00;99.90
24410;DHT22;12543;53.364;-1.504;2023-05-10T00:55:00;12.00;99.90
24410;DHT22;12543;53.364;-1.504;2023-05-10T00:57:27;11.90;99.90
24410;DHT22;12543;53.364;-1.504;2023-05-10T00:59:54;11.90;99.90
24410;DHT22;12543;53.364;-1.504;2023-05-10T01:02:21;12.00;99.90
24410;DHT22;12543;53.364;-1.504;2023-05-10T01:04:49;12.00;99.90
24410;DHT22;12543;53.364;-1.504;2023-05-10T01:07:16;11.90;99.90
24410;DHT22;12543;53.364;-1.504;2023-05-10T01:09:43;11.90;99.90
24410;DHT22;12543;53.364;-1.504;2023-05-10T01:12:11;12.00;99.90
24410;DHT22;12543;53.364;-1.504;2023-05-10T01:14:45;12.00;99.90
24410;DHT22;12543;53.364;-1.504;2023-05-10T01:17:12;12.00;99.90
24410;DHT22;12543;53.364;-1.504;2023-05-10T01:19:40;11.90;99.90
24410;DHT22;12543;53.364;-1.504;2023-05-10T01:24:59;12.00;99.90
24410;DHT22;12543;53.364;-1.504;2023-05-10T01:33:11;12.00;99.90
24410;DHT22;12543;53.364;-1.504;2023-05-10T01:35:46;12.00;99.90
24410;DHT22;12543;53.364;-1.504;2023-05-10T01:43:28;12.00;99.90
24410;DHT22;12543;53.364;-1.504;2023-05-10T01:46:02;11.90;99.90
24410;DHT22;12543;53.364;-1.504;2023-05-10T01:48:40;11.90;99.90
24410;DHT22;12543;53.364;-1.504;2023-05-10T01:51:16;11.90;99.90
24410;DHT22;12543;53.364;-1.504;2023-05-10T01:53:46;11.90;99.90
24410;DHT22;12543;53.364;-1.504;2023-05-10T01:56:15;11.90;99.90
24410;DHT22;12543;53.364;-1.504;2023-05-10T01:58:44;11.90;99.90
24410;DHT22;12543;53.364;-1.504;2023-05-10T02:01:13;11.90;99.90
24410;DHT22;12543;53.364;-1.504;2023-05-10T02:03:40;12.00;99.90
24410;DHT22;12543;53.364;-1.504;2023-05-10T02:06:09;11.90;99.90
24410;DHT22;12543;53.364;-1.504;2023-05-10T02:08:37;11.90;99.90
24410;DHT22;12543;53.364;-1.504;2023-05-10T02:11:05;11.90;99.90
24410;DHT22;12543;53.364;-1.504;2023-05-10T02:13:32;11.90;99.90
24410;DHT22;12543;53.364;-1.504;2023-05-10T02:16:02;11.90;99.90
24410;DHT22;12543;53.364;-1.504;2023-05-10T02:18:30;11.80;99.90
24410;DHT22;12543;53.364;-1.504;2023-05-10T02:20:58;11.80;99.90
24410;DHT22;12543;53.364;-1.504;2023-05-10T02:23:25;11.80;99.90
24410;DHT22;12543;53.364;-1.504;2023-05-10T02:25:53;11.90;99.90
24410;DHT22;12543;53.364;-1.504;2023-05-10T02:28:21;11.80;99.90
24410;DHT22;12543;53.364;-1.504;2023-05-10T02:30:49;11.80;99.90
24410;DHT22;12543;53.364;-1.504;2023-05-10T02:33:16;11.80;99.90
24410;DHT22;12543;53.364;-1.504;2023-05-10T02:35:44;11.80;99.90
24410;DHT22;12543;53.364;-1.504;2023-05-10T02:38:12;11.70;99.90
24410;DHT22;12543;53.364;-1.504;2023-05-10T02:40:41;11.70;99.90
24410;DHT22;12543;53.364;-1.504;2023-05-10T02:43:12;11.70;99.90
24410;DHT22;12543;53.364;-1.504;2023-05-10T02:45:40;11.70;99.90
24410;DHT22;12543;53.364;-1.504;2023-05-10T02:48:08;11.70;99.90
24410;DHT22;12543;53.364;-1.504;2023-05-10T02:50:36;11.70;99.90
24410;DHT22;12543;53.364;-1.504;2023-05-10T02:53:05;11.70;99.90
24410;DHT22;12543;53.364;-1.504;2023-05-10T02:55:35;11.70;99.90
24410;DHT22;12543;53.364;-1.504;2023-05-10T02:58:03;11.70;99.90
24410;DHT22;12543;53.364;-1.504;2023-05-10T03:00:30;11.70;99.90
24410;DHT22;12543;53.364;-1.504;2023-05-10T03:02:57;11.70;99.90
24410;DHT22;12543;53.364;-1.504;2023-05-10T03:05:26;11.70;99.90
24410;DHT22;12543;53.364;-1.504;2023-05-10T03:07:53;11.70;99.90
24410;DHT22;12543;53.364;-1.504;2023-05-10T03:10:21;11.70;99.90
24410;DHT22;12543;53.364;-1.504;2023-05-10T03:21:04;11.60;99.90
24410;DHT22;12543;53.364;-1.504;2023-05-10T03:23:35;11.60;99.90
24410;DHT22;12543;53.364;-1.504;2023-05-10T03:26:02;11.50;99.90
24410;DHT22;12543;53.364;-1.504;2023-05-10T03:28:31;11.50;99.90
24410;DHT22;12543;53.364;-1.504;2023-05-10T03:30:59;11.60;99.90
24410;DHT22;12543;53.364;-1.504;2023-05-10T03:33:29;11.60;99.90
24410;DHT22;12543;53.364;-1.504;2023-05-10T03:35:56;11.60;99.90
24410;DHT22;12543;53.364;-1.504;2023-05-10T03:38:23;11.50;99.90
24410;DHT22;12543;53.364;-1.504;2023-05-10T03:40:50;11.50;99.90
24410;DHT22;12543;53.364;-1.504;2023-05-10T03:43:17;11.50;99.90
24410;DHT22;12543;53.364;-1.504;2023-05-10T03:45:44;11.50;99.90
24410;DHT22;12543;53.364;-1.504;2023-05-10T03:48:11;11.50;99.90
24410;DHT22;12543;53.364;-1.504;2023-05-10T03:50:41;11.50;99.90
24410;DHT22;12543;53.364;-1.504;2023-05-10T03:53:08;11.50;99.90
24410;DHT22;12543;53.364;-1.504;2023-05-10T03:55:35;11.50;99.90
24410;DHT22;12543;53.364;-1.504;2023-05-10T03:58:03;11.50;99.90
24410;DHT22;12543;53.364;-1.504;2023-05-10T04:00:32;11.50;99.90
24410;DHT22;12543;53.364;-1.504;2023-05-10T04:02:59;11.40;99.90
24410;DHT22;12543;53.364;-1.504;2023-05-10T04:05:27;11.40;99.90
24410;DHT22;12543;53.364;-1.504;2023-05-10T04:07:54;11.40;99.90
24410;DHT22;12543;53.364;-1.504;2023-05-10T04:10:21;11.40;99.90
24410;DHT22;12543;53.364;-1.504;2023-05-10T04:12:48;11.50;99.90
24410;DHT22;12543;53.364;-1.504;2023-05-10T04:15:15;11.50;99.90
24410;DHT22;12543;53.364;-1.504;2023-05-10T04:17:42;11.40;99.90
24410;DHT22;12543;53.364;-1.504;2023-05-10T04:20:09;11.40;99.90
24410;DHT22;12543;53.364;-1.504;2023-05-10T04:22:36;11.40;99.90
24410;DHT22;12543;53.364;-1.504;2023-05-10T04:25:03;11.40;99.90
24410;DHT22;12543;53.364;-1.504;2023-05-10T04:27:31;11.40;99.90
24410;DHT22;12543;53.364;-1.504;2023-05-10T04:29:58;11.40;99.90
24410;DHT22;12543;53.364;-1.504;2023-05-10T04:32:25;11.40;99.90
24410;DHT22;12543;53.364;-1.504;2023-05-10T04:34:52;11.40;99.90
24410;DHT22;12543;53.364;-1.504;2023-05-10T04:37:19;11.40;99.90
24410;DHT22;12543;53.364;-1.504;2023-05-10T04:39:48;11.40;99.90
24410;DHT22;12543;53.364;-1.504;2023-05-10T04:42:14;11.40;99.90
24410;DHT22;12543;53.364;-1.504;2023-05-10T04:44:42;11.40;99.90
24410;DHT22;12543;53.364;-1.504;2023-05-10T04:47:09;11.40;99.90
24410;DHT22;12543;53.364;-1.504;2023-05-10T04:49:38;11.30;99.90
24410;DHT22;12543;53.364;-1.504;2023-05-10T04:52:05;11.30;99.90
24410;DHT22;12543;53.364;-1.504;2023-05-10T04:54:32;11.30;99.90
24410;DHT22;12543;53.364;-1.504;2023-05-10T04:56:58;11.30;99.90
24410;DHT22;12543;53.364;-1.504;2023-05-10T04:59:26;11.30;99.90
24410;DHT22;12543;53.364;-1.504;2023-05-10T05:01:53;11.30;99.90
24410;DHT22;12543;53.364;-1.504;2023-05-10T05:04:20;11.30;99.90
24410;DHT22;12543;53.364;-1.504;2023-05-10T05:06:46;11.30;99.90
24410;DHT22;12543;53.364;-1.504;2023-05-10T05:09:13;11.40;99.90
24410;DHT22;12543;53.364;-1.504;2023-05-10T05:11:40;11.40;99.90
24410;DHT22;12543;53.364;-1.504;2023-05-10T05:14:08;11.30;99.90
24410;DHT22;12543;53.364;-1.504;2023-05-10T05:16:35;11.30;99.90
24410;DHT22;12543;53.364;-1.504;2023-05-10T05:19:02;11.40;99.90
24410;DHT22;12543;53.364;-1.504;2023-05-10T05:21:29;11.40;99.90
24410;DHT22;12543;53.364;-1.504;2023-05-10T05:23:56;11.40;99.90
24410;DHT22;12543;53.364;-1.504;2023-05-10T05:26:23;11.40;99.90
24410;DHT22;12543;53.364;-1.504;2023-05-10T05:28:50;11.40;99.90
24410;DHT22;12543;53.364;-1.504;2023-05-10T05:31:20;11.50;99.90
24410;DHT22;12543;53.364;-1.504;2023-05-10T05:33:47;11.40;99.90
24410;DHT22;12543;53.364;-1.504;2023-05-10T05:36:14;11.40;99.90
24410;DHT22;12543;53.364;-1.504;2023-05-10T05:38:41;11.50;99.90
24410;DHT22;12543;53.364;-1.504;2023-05-10T05:41:09;11.50;99.90
24410;DHT22;12543;53.364;-1.504;2023-05-10T05:43:36;11.50;99.90
24410;DHT22;12543;53.364;-1.504;2023-05-10T05:46:04;11.50;99.90
24410;DHT22;12543;53.364;-1.504;2023-05-10T05:48:31;11.60;99.90
24410;DHT22;12543;53.364;-1.504;2023-05-10T05:50:58;11.60;99.90
24410;DHT22;12543;53.364;-1.504;2023-05-10T05:53:25;11.60;99.90
24410;DHT22;12543;53.364;-1.504;2023-05-10T05:58:20;11.70;99.90
24410;DHT22;12543;53.364;-1.504;2023-05-10T06:00:48;11.70;99.90
24410;DHT22;12543;53.364;-1.504;2023-05-10T06:03:15;11.70;99.90
24410;DHT22;12543;53.364;-1.504;2023-05-10T06:05:42;11.80;99.90
24410;DHT22;12543;53.364;-1.504;2023-05-10T06:08:09;11.80;99.90
24410;DHT22;12543;53.364;-1.504;2023-05-10T06:10:36;11.90;99.90
24410;DHT22;12543;53.364;-1.504;2023-05-10T06:13:03;11.90;99.90
24410;DHT22;12543;53.364;-1.504;2023-05-10T06:15:30;11.90;99.90
24410;DHT22;12543;53.364;-1.504;2023-05-10T06:17:59;11.90;99.90
24410;DHT22;12543;53.364;-1.504;2023-05-10T06:20:26;12.00;99.90
24410;DHT22;12543;53.364;-1.504;2023-05-10T06:22:53;12.00;99.90
24410;DHT22;12543;53.364;-1.504;2023-05-10T06:25:20;12.00;99.90
24410;DHT22;12543;53.364;-1.504;2023-05-10T06:27:48;12.10;99.90
24410;DHT22;12543;53.364;-1.504;2023-05-10T06:30:19;12.10;99.90
24410;DHT22;12543;53.364;-1.504;2023-05-10T06:32:46;12.20;99.90
24410;DHT22;12543;53.364;-1.504;2023-05-10T06:35:14;12.20;99.90
24410;DHT22;12543;53.364;-1.504;2023-05-10T06:37:41;12.30;99.90
24410;DHT22;12543;53.364;-1.504;2023-05-10T06:40:08;12.30;99.90
24410;DHT22;12543;53.364;-1.504;2023-05-10T06:42:36;12.40;99.90
24410;DHT22;12543;53.364;-1.504;2023-05-10T06:45:03;12.50;99.90
24410;DHT22;12543;53.364;-1.504;2023-05-10T06:47:30;12.50;99.90
24410;DHT22;12543;53.364;-1.504;2023-05-10T06:49:57;12.50;99.90
24410;DHT22;12543;53.364;-1.504;2023-05-10T06:52:24;12.60;99.90
24410;DHT22;12543;53.364;-1.504;2023-05-10T06:54:51;12.60;99.90
24410;DHT22;12543;53.364;-1.504;2023-05-10T06:57:18;12.60;99.90
24410;DHT22;12543;53.364;-1.504;2023-05-10T06:59:57;12.70;99.90
24410;DHT22;12543;53.364;-1.504;2023-05-10T07:02:24;12.80;99.90
24410;DHT22;12543;53.364;-1.504;2023-05-10T07:04:52;12.80;99.90
24410;DHT22;12543;53.364;-1.504;2023-05-10T07:07:19;12.90;99.90
24410;DHT22;12543;53.364;-1.504;2023-05-10T07:09:46;12.90;99.90
24410;DHT22;12543;53.364;-1.504;2023-05-10T07:12:13;12.90;99.90
24410;DHT22;12543;53.364;-1.504;2023-05-10T07:14:41;13.00;99.90
24410;DHT22;12543;53.364;-1.504;2023-05-10T07:17:09;13.10;99.90
24410;DHT22;12543;53.364;-1.504;2023-05-10T07:19:36;13.10;99.90
24410;DHT22;12543;53.364;-1.504;2023-05-10T07:22:03;13.10;99.90
24410;DHT22;12543;53.364;-1.504;2023-05-10T07:24:32;13.20;99.90
24410;DHT22;12543;53.364;-1.504;2023-05-10T07:26:59;13.20;99.90
24410;DHT22;12543;53.364;-1.504;2023-05-10T07:29:26;13.20;99.90
24410;DHT22;12543;53.364;-1.504;2023-05-10T07:31:54;13.30;99.90
24410;DHT22;12543;53.364;-1.504;2023-05-10T07:34:24;13.30;99.90
24410;DHT22;12543;53.364;-1.504;2023-05-10T07:36:51;13.30;99.90
24410;DHT22;12543;53.364;-1.504;2023-05-10T07:39:18;13.40;99.90
24410;DHT22;12543;53.364;-1.504;2023-05-10T07:41:54;13.50;99.90
24410;DHT22;12543;53.364;-1.504;2023-05-10T07:44:21;13.50;99.90
24410;DHT22;12543;53.364;-1.504;2023-05-10T07:46:48;13.60;99.90
24410;DHT22;12543;53.364;-1.504;2023-05-10T07:49:15;13.80;99.90
24410;DHT22;12543;53.364;-1.504;2023-05-10T07:51:42;13.90;99.90
24410;DHT22;12543;53.364;-1.504;2023-05-10T07:54:09;14.00;99.90
24410;DHT22;12543;53.364;-1.504;2023-05-10T07:56:36;14.10;99.90
24410;DHT22;12543;53.364;-1.504;2023-05-10T07:59:03;14.40;99.90
24410;DHT22;12543;53.364;-1.504;2023-05-10T08:01:31;14.40;99.90
24410;DHT22;12543;53.364;-1.504;2023-05-10T08:03:59;14.50;99.90
24410;DHT22;12543;53.364;-1.504;2023-05-10T08:06:26;14.60;99.90
24410;DHT22;12543;53.364;-1.504;2023-05-10T08:08:54;14.60;99.90
24410;DHT22;12543;53.364;-1.504;2023-05-10T08:11:22;14.70;99.90
24410;DHT22;12543;53.364;-1.504;2023-05-10T08:13:49;14.70;99.90
24410;DHT22;12543;53.364;-1.504;2023-05-10T08:16:17;14.80;99.90
24410;DHT22;12543;53.364;-1.504;2023-05-10T08:18:44;14.90;99.90
24410;DHT22;12543;53.364;-1.504;2023-05-10T08:21:13;15.00;99.90
24410;DHT22;12543;53.364;-1.504;2023-05-10T08:23:41;15.10;99.90
24410;DHT22;12543;53.364;-1.504;2023-05-10T08:26:08;15.00;99.90
24410;DHT22;12543;53.364;-1.504;2023-05-10T08:28:34;15.20;99.90
24410;DHT22;12543;53.364;-1.504;2023-05-10T08:31:01;15.20;99.90
24410;DHT22;12543;53.364;-1.504;2023-05-10T08:33:28;15.30;99.90
24410;DHT22;12543;53.364;-1.504;2023-05-10T08:35:55;15.30;99.90
24410;DHT22;12543;53.364;-1.504;2023-05-10T08:38:22;15.40;99.90
24410;DHT22;12543;53.364;-1.504;2023-05-10T08:40:49;15.50;99.90
24410;DHT22;12543;53.364;-1.504;2023-05-10T08:43:23;15.50;99.90
24410;DHT22;12543;53.364;-1.504;2023-05-10T08:45:52;15.60;99.90
24410;DHT22;12543;53.364;-1.504;2023-05-10T08:48:20;15.60;99.90
24410;DHT22;12543;53.364;-1.504;2023-05-10T08:50:49;15.50;99.90
24410;DHT22;12543;53.364;-1.504;2023-05-10T08:53:19;15.70;99.90
24410;DHT22;12543;53.364;-1.504;2023-05-10T08:55:46;15.70;99.90
24410;DHT22;12543;53.364;-1.504;2023-05-10T08:58:13;15.80;99.90
24410;DHT22;12543;53.364;-1.504;2023-05-10T09:00:41;16.00;99.90
24410;DHT22;12543;53.364;-1.504;2023-05-10T09:03:08;16.00;99.90
24410;DHT22;12543;53.364;-1.504;2023-05-10T09:05:35;16.10;99.90
24410;DHT22;12543;53.364;-1.504;2023-05-10T09:08:03;16.10;99.90
24410;DHT22;12543;53.364;-1.504;2023-05-10T09:10:30;16.20;99.90
24410;DHT22;12543;53.364;-1.504;2023-05-10T09:12:57;16.40;99.90
24410;DHT22;12543;53.364;-1.504;2023-05-10T09:15:25;16.50;99.90
24410;DHT22;12543;53.364;-1.504;2023-05-10T09:17:52;16.50;99.90
24410;DHT22;12543;53.364;-1.504;2023-05-10T09:20:21;16.60;99.90
24410;DHT22;12543;53.364;-1.504;2023-05-10T09:22:48;16.50;99.90
24410;DHT22;12543;53.364;-1.504;2023-05-10T09:25:15;16.50;99.90
24410;DHT22;12543;53.364;-1.504;2023-05-10T09:27:46;16.50;99.90
24410;DHT22;12543;53.364;-1.504;2023-05-10T09:30:23;16.50;99.90
24410;DHT22;12543;53.364;-1.504;2023-05-10T09:32:51;16.40;99.90
24410;DHT22;12543;53.364;-1.504;2023-05-10T09:35:19;16.40;99.90
24410;DHT22;12543;53.364;-1.504;2023-05-10T09:37:48;16.40;99.90
24410;DHT22;12543;53.364;-1.504;2023-05-10T09:40:16;16.40;99.90
24410;DHT22;12543;53.364;-1.504;2023-05-10T09:45:32;16.30;99.90
24410;DHT22;12543;53.364;-1.504;2023-05-10T09:48:02;16.20;99.90
24410;DHT22;12543;53.364;-1.504;2023-05-10T09:50:30;16.20;99.90
24410;DHT22;12543;53.364;-1.504;2023-05-10T09:52:58;16.20;99.90
24410;DHT22;12543;53.364;-1.504;2023-05-10T09:55:27;16.20;99.90
24410;DHT22;12543;53.364;-1.504;2023-05-10T09:58:04;16.20;99.90
24410;DHT22;12543;53.364;-1.504;2023-05-10T10:00:37;16.40;99.90
24410;DHT22;12543;53.364;-1.504;2023-05-10T10:03:04;16.50;99.90
24410;DHT22;12543;53.364;-1.504;2023-05-10T10:05:32;16.90;99.90
24410;DHT22;12543;53.364;-1.504;2023-05-10T10:08:02;17.20;99.90
24410;DHT22;12543;53.364;-1.504;2023-05-10T10:10:29;17.30;99.90
24410;DHT22;12543;53.364;-1.504;2023-05-10T10:12:57;17.50;99.90
24410;DHT22;12543;53.364;-1.504;2023-05-10T10:15:25;17.70;99.90
24410;DHT22;12543;53.364;-1.504;2023-05-10T10:17:52;17.80;99.90
24410;DHT22;12543;53.364;-1.504;2023-05-10T10:20:20;18.10;99.90
24410;DHT22;12543;53.364;-1.504;2023-05-10T10:22:47;18.20;99.90
24410;DHT22;12543;53.364;-1.504;2023-05-10T10:25:15;18.50;99.90
24410;DHT22;12543;53.364;-1.504;2023-05-10T10:30:13;19.20;99.90
24410;DHT22;12543;53.364;-1.504;2023-05-10T10:35:08;19.60;99.90
24410;DHT22;12543;53.364;-1.504;2023-05-10T10:37:46;19.90;99.90
24410;DHT22;12543;53.364;-1.504;2023-05-10T10:40:26;20.30;99.90
24410;DHT22;12543;53.364;-1.504;2023-05-10T10:42:54;20.60;99.90
24410;DHT22;12543;53.364;-1.504;2023-05-10T10:45:21;20.80;99.90
24410;DHT22;12543;53.364;-1.504;2023-05-10T10:47:49;20.70;99.90
24410;DHT22;12543;53.364;-1.504;2023-05-10T10:50:20;20.70;99.90
24410;DHT22;12543;53.364;-1.504;2023-05-10T10:52:47;20.50;99.90
24410;DHT22;12543;53.364;-1.504;2023-05-10T10:55:19;20.10;99.90
24410;DHT22;12543;53.364;-1.504;2023-05-10T10:57:52;20.00;99.90
24410;DHT22;12543;53.364;-1.504;2023-05-10T11:00:25;19.60;99.90
24410;DHT22;12543;53.364;-1.504;2023-05-10T11:02:59;19.30;99.90
24410;DHT22;12543;53.364;-1.504;2023-05-10T11:07:54;19.00;99.90
24410;DHT22;12543;53.364;-1.504;2023-05-10T11:10:22;18.70;99.90
24410;DHT22;12543;53.364;-1.504;2023-05-10T11:13:03;18.50;99.90
24410;DHT22;12543;53.364;-1.504;2023-05-10T11:15:31;18.30;99.90
24410;DHT22;12543;53.364;-1.504;2023-05-10T11:17:58;18.20;99.90
24410;DHT22;12543;53.364;-1.504;2023-05-10T11:20:32;18.10;99.90
24410;DHT22;12543;53.364;-1.504;2023-05-10T11:23:12;18.10;99.90
24410;DHT22;12543;53.364;-1.504;2023-05-10T11:25:42;18.00;99.90
24410;DHT22;12543;53.364;-1.504;2023-05-10T11:28:12;18.20;99.90
24410;DHT22;12543;53.364;-1.504;2023-05-10T11:30:39;18.20;99.90
24410;DHT22;12543;53.364;-1.504;2023-05-10T11:33:08;18.40;99.90
24410;DHT22;12543;53.364;-1.504;2023-05-10T11:35:38;18.60;99.90
24410;DHT22;12543;53.364;-1.504;2023-05-10T11:38:10;18.80;99.90
24410;DHT22;12543;53.364;-1.504;2023-05-10T11:40:37;19.20;99.90
24410;DHT22;12543;53.364;-1.504;2023-05-10T11:43:04;19.80;99.90
24410;DHT22;12543;53.364;-1.504;2023-05-10T11:45:32;20.30;99.90
24410;DHT22;12543;53.364;-1.504;2023-05-10T11:47:59;21.00;99.90
24410;DHT22;12543;53.364;-1.504;2023-05-10T11:50:27;21.70;99.90
24410;DHT22;12543;53.364;-1.504;2023-05-10T11:52:55;22.40;99.90
24410;DHT22;12543;53.364;-1.504;2023-05-10T11:55:22;23.00;99.90
24410;DHT22;12543;53.364;-1.504;2023-05-10T11:57:53;23.10;99.90
24410;DHT22;12543;53.364;-1.504;2023-05-10T12:00:20;23.20;99.90
24410;DHT22;12543;53.364;-1.504;2023-05-10T12:02:47;22.90;99.90
24410;DHT22;12543;53.364;-1.504;2023-05-10T12:05:15;22.80;99.90
24410;DHT22;12543;53.364;-1.504;2023-05-10T12:07:42;22.40;99.90
24410;DHT22;12543;53.364;-1.504;2023-05-10T12:10:10;22.00;99.90
24410;DHT22;12543;53.364;-1.504;2023-05-10T12:12:42;21.60;99.90
24410;DHT22;12543;53.364;-1.504;2023-05-10T12:15:20;21.30;99.90
24410;DHT22;12543;53.364;-1.504;2023-05-10T12:17:47;21.10;99.90
24410;DHT22;12543;53.364;-1.504;2023-05-10T12:22:49;20.40;99.90
24410;DHT22;12543;53.364;-1.504;2023-05-10T12:25:17;20.10;99.90
24410;DHT22;12543;53.364;-1.504;2023-05-10T12:27:55;19.70;99.90
24410;DHT22;12543;53.364;-1.504;2023-05-10T12:30:39;19.50;99.90
24410;DHT22;12543;53.364;-1.504;2023-05-10T12:33:07;19.20;99.90
24410;DHT22;12543;53.364;-1.504;2023-05-10T12:35:45;19.00;99.90
24410;DHT22;12543;53.364;-1.504;2023-05-10T12:40:59;18.70;99.90
24410;DHT22;12543;53.364;-1.504;2023-05-10T12:43:26;18.40;99.90
24410;DHT22;12543;53.364;-1.504;2023-05-10T12:45:53;18.20;99.90
24410;DHT22;12543;53.364;-1.504;2023-05-10T12:48:20;18.20;99.90
24410;DHT22;12543;53.364;-1.504;2023-05-10T12:50:47;18.20;99.90
24410;DHT22;12543;53.364;-1.504;2023-05-10T12:53:14;18.40;99.90
24410;DHT22;12543;53.364;-1.504;2023-05-10T12:55:44;18.50;99.90
24410;DHT22;12543;53.364;-1.504;2023-05-10T12:58:11;18.80;99.90
24410;DHT22;12543;53.364;-1.504;2023-05-10T13:00:46;19.10;99.90
24410;DHT22;12543;53.364;-1.504;2023-05-10T13:03:13;19.60;99.90
24410;DHT22;12543;53.364;-1.504;2023-05-10T13:05:41;20.00;99.90
24410;DHT22;12543;53.364;-1.504;2023-05-10T13:08:08;20.50;99.90
24410;DHT22;12543;53.364;-1.504;2023-05-10T13:10:35;21.00;99.90
24410;DHT22;12543;53.364;-1.504;2023-05-10T13:13:02;21.00;99.90
24410;DHT22;12543;53.364;-1.504;2023-05-10T13:15:29;21.30;99.90
24410;DHT22;12543;53.364;-1.504;2023-05-10T13:17:56;21.20;99.90
24410;DHT22;12543;53.364;-1.504;2023-05-10T13:20:24;21.10;99.90
24410;DHT22;12543;53.364;-1.504;2023-05-10T13:22:51;20.80;99.90
24410;DHT22;12543;53.364;-1.504;2023-05-10T13:25:18;20.70;99.90
24410;DHT22;12543;53.364;-1.504;2023-05-10T13:27:45;20.60;99.90
24410;DHT22;12543;53.364;-1.504;2023-05-10T13:30:12;20.10;99.90
24410;DHT22;12543;53.364;-1.504;2023-05-10T13:32:40;19.90;99.90
24410;DHT22;12543;53.364;-1.504;2023-05-10T13:35:07;19.60;99.90
24410;DHT22;12543;53.364;-1.504;2023-05-10T13:37:37;19.10;99.90
24410;DHT22;12543;53.364;-1.504;2023-05-10T13:40:04;18.80;99.90
24410;DHT22;12543;53.364;-1.504;2023-05-10T13:42:32;18.50;99.90
24410;DHT22;12543;53.364;-1.504;2023-05-10T13:45:00;18.20;99.90
24410;DHT22;12543;53.364;-1.504;2023-05-10T13:47:28;18.10;99.90
24410;DHT22;12543;53.364;-1.504;2023-05-10T13:49:55;17.90;99.90
24410;DHT22;12543;53.364;-1.504;2023-05-10T13:52:24;17.80;99.90
24410;DHT22;12543;53.364;-1.504;2023-05-10T13:54:51;17.50;99.90
24410;DHT22;12543;53.364;-1.504;2023-05-10T13:57:21;17.40;99.90
24410;DHT22;12543;53.364;-1.504;2023-05-10T13:59:51;17.30;99.90
24410;DHT22;12543;53.364;-1.504;2023-05-10T14:02:18;17.40;99.90
24410;DHT22;12543;53.364;-1.504;2023-05-10T14:04:45;17.30;99.90
24410;DHT22;12543;53.364;-1.504;2023-05-10T14:07:12;17.10;99.90
24410;DHT22;12543;53.364;-1.504;2023-05-10T14:09:39;17.00;99.90
24410;DHT22;12543;53.364;-1.504;2023-05-10T14:12:06;16.90;99.90
24410;DHT22;12543;53.364;-1.504;2023-05-10T14:14:34;16.90;99.90
24410;DHT22;12543;53.364;-1.504;2023-05-10T14:17:01;16.90;99.90
24410;DHT22;12543;53.364;-1.504;2023-05-10T14:19:28;16.80;99.90
24410;DHT22;12543;53.364;-1.504;2023-05-10T14:21:59;16.80;99.90
24410;DHT22;12543;53.364;-1.504;2023-05-10T14:24:26;16.80;99.90
24410;DHT22;12543;53.364;-1.504;2023-05-10T14:26:53;16.70;99.90
24410;DHT22;12543;53.364;-1.504;2023-05-10T14:29:21;16.70;99.90
24410;DHT22;12543;53.364;-1.504;2023-05-10T14:31:49;16.60;99.90
24410;DHT22;12543;53.364;-1.504;2023-05-10T14:34:16;16.80;99.90
24410;DHT22;12543;53.364;-1.504;2023-05-10T14:36:43;16.80;99.90
24410;DHT22;12543;53.364;-1.504;2023-05-10T14:39:10;16.70;99.90
24410;DHT22;12543;53.364;-1.504;2023-05-10T14:41:39;16.70;99.90
24410;DHT22;12543;53.364;-1.504;2023-05-10T14:44:09;16.70;99.90
24410;DHT22;12543;53.364;-1.504;2023-05-10T14:46:36;16.50;99.90
24410;DHT22;12543;53.364;-1.504;2023-05-10T14:49:13;16.50;99.90
24410;DHT22;12543;53.364;-1.504;2023-05-10T14:51:40;16.50;99.90
24410;DHT22;12543;53.364;-1.504;2023-05-10T14:54:07;16.50;99.90
24410;DHT22;12543;53.364;-1.504;2023-05-10T14:56:34;16.40;99.90
24410;DHT22;12543;53.364;-1.504;2023-05-10T14:59:04;16.30;99.90
24410;DHT22;12543;53.364;-1.504;2023-05-10T15:01:39;16.30;99.90
24410;DHT22;12543;53.364;-1.504;2023-05-10T15:04:09;16.40;99.90
24410;DHT22;12543;53.364;-1.504;2023-05-10T15:06:36;16.30;99.90
24410;DHT22;12543;53.364;-1.504;2023-05-10T15:09:03;16.40;99.90
24410;DHT22;12543;53.364;-1.504;2023-05-10T15:11:30;16.30;99.90
24410;DHT22;12543;53.364;-1.504;2023-05-10T15:13:57;16.20;99.90
24410;DHT22;12543;53.364;-1.504;2023-05-10T15:16:27;16.20;99.90
24410;DHT22;12543;53.364;-1.504;2023-05-10T15:18:54;16.10;99.90
24410;DHT22;12543;53.364;-1.504;2023-05-10T15:21:21;16.20;99.90
24410;DHT22;12543;53.364;-1.504;2023-05-10T15:23:48;16.20;99.90
24410;DHT22;12543;53.364;-1.504;2023-05-10T15:26:15;16.00;99.90
24410;DHT22;12543;53.364;-1.504;2023-05-10T15:28:42;16.00;99.90
24410;DHT22;12543;53.364;-1.504;2023-05-10T15:31:10;16.00;99.90
24410;DHT22;12543;53.364;-1.504;2023-05-10T15:33:37;16.00;99.90
24410;DHT22;12543;53.364;-1.504;2023-05-10T15:36:04;16.00;99.90
24410;DHT22;12543;53.364;-1.504;2023-05-10T15:38:31;15.90;99.90
24410;DHT22;12543;53.364;-1.504;2023-05-10T15:40:58;15.90;99.90
24410;DHT22;12543;53.364;-1.504;2023-05-10T15:43:25;16.00;99.90
24410;DHT22;12543;53.364;-1.504;2023-05-10T15:45:52;15.90;99.90
24410;DHT22;12543;53.364;-1.504;2023-05-10T15:48:19;15.90;99.90
24410;DHT22;12543;53.364;-1.504;2023-05-10T15:50:46;15.90;99.90
24410;DHT22;12543;53.364;-1.504;2023-05-10T15:53:13;15.80;99.90
24410;DHT22;12543;53.364;-1.504;2023-05-10T15:55:40;15.80;99.90
24410;DHT22;12543;53.364;-1.504;2023-05-10T15:58:07;15.80;99.90
24410;DHT22;12543;53.364;-1.504;2023-05-10T16:00:34;15.80;99.90